createdAt,value
2023-03-02T00:04:12.370Z,16.43
2023-03-02T00:09:12.599Z,15.45
2023-03-02T00:14:11.353Z,14.55
2023-03-02T00:19:10.110Z,14.13
2023-03-02T00:24:09.327Z,13.02
2023-03-02T00:29:09.884Z,13.88
2023-03-02T00:34:08.983Z,16.25
2023-03-02T00:39:09.415Z,14.02
2023-03-02T00:44:09.614Z,14.30
2023-03-02T00:49:08.567Z,14.25
2023-03-02T00:54:07.541Z,14.38
2023-03-02T00:59:07.301Z,13.05
2023-03-02T01:04:08.426Z,14.75
2023-03-02T01:09:07.375Z,13.05
2023-03-02T01:14:06.350Z,14.93
2023-03-02T01:19:05.304Z,13.43
2023-03-02T01:24:06.662Z,15.07
2023-03-02T01:29:06.106Z,17.48
2023-03-02T01:34:05.025Z,15.90
2023-03-02T01:39:05.510Z,15.38
2023-03-02T01:44:04.498Z,15.45
2023-03-02T01:49:06.283Z,15.90
2023-03-02T01:54:23.356Z,15.32
2023-03-02T01:59:29.318Z,16.05
2023-03-02T02:04:32.135Z,15.98
2023-03-02T02:14:34.144Z,15.73
2023-03-02T02:19:46.217Z,16.67
2023-03-02T02:24:51.364Z,17.55
2023-03-02T02:29:53.424Z,33.75
2023-03-02T02:34:56.717Z,18.87
2023-03-02T02:39:56.884Z,18.10
2023-03-02T02:45:04.207Z,18.13
2023-03-02T02:50:03.763Z,17.95
2023-03-02T02:55:04.226Z,18.70
2023-03-02T03:05:37.409Z,18.23
2023-03-02T03:10:41.414Z,18.33
2023-03-02T03:15:42.094Z,20.55
2023-03-02T03:20:55.438Z,22.05
2023-03-02T03:25:54.605Z,21.08
2023-03-02T03:30:55.272Z,22.70
2023-03-02T03:35:54.404Z,22.85
2023-03-02T03:40:54.770Z,22.13
2023-03-02T03:45:55.186Z,22.70
2023-03-02T03:50:54.717Z,22.33
2023-03-02T03:55:54.432Z,23.27
2023-03-02T04:00:55.949Z,23.95
2023-03-02T04:05:54.887Z,23.17
2023-03-02T04:10:54.090Z,23.98
2023-03-02T04:15:54.397Z,23.80
2023-03-02T04:20:53.353Z,24.23
2023-03-02T04:25:52.326Z,24.50
2023-03-02T04:30:55.198Z,22.48
2023-03-02T04:35:55.389Z,24.98
2023-03-02T04:40:54.902Z,24.40
2023-03-02T04:45:55.662Z,25.30
2023-03-02T04:51:00.640Z,24.73
2023-03-02T04:55:59.849Z,25.38
2023-03-02T05:01:02.445Z,25.27
2023-03-02T05:06:02.390Z,25.03
2023-03-02T05:11:01.302Z,25.60
2023-03-02T05:16:02.272Z,24.35
2023-03-02T05:21:01.131Z,23.77
2023-03-02T05:26:00.223Z,25.17
2023-03-02T05:30:59.515Z,24.33
2023-03-02T05:36:01.427Z,25.02
2023-03-02T05:41:01.488Z,27.77
2023-03-02T05:46:01.145Z,24.77
2023-03-02T05:51:01.343Z,25.25
2023-03-02T05:56:00.330Z,24.98
2023-03-02T06:00:59.484Z,26.90
2023-03-02T06:05:58.298Z,26.48
2023-03-02T06:10:59.515Z,26.05
2023-03-02T06:15:58.456Z,25.40
2023-03-02T06:20:57.403Z,27.73
2023-03-02T06:25:56.491Z,27.67
2023-03-02T06:30:56.698Z,28.25
2023-03-02T06:35:55.860Z,26.45
2023-03-02T06:40:55.232Z,24.75
2023-03-02T06:45:54.135Z,29.65
2023-03-02T06:50:54.773Z,29.17
2023-03-02T06:55:54.172Z,27.52
2023-03-02T07:00:53.021Z,28.08
2023-03-02T07:05:57.741Z,26.17
2023-03-02T07:10:56.649Z,25.15
2023-03-02T07:15:56.374Z,26.00
2023-03-02T07:20:56.718Z,25.05
2023-03-02T07:25:55.504Z,26.48
2023-03-02T07:30:55.329Z,25.33
2023-03-02T07:35:54.288Z,30.08
2023-03-02T07:40:54.778Z,29.17
2023-03-02T07:45:53.661Z,26.33
2023-03-02T07:50:52.632Z,28.40
2023-03-02T07:55:51.494Z,28.35
2023-03-02T08:00:52.179Z,27.80
2023-03-02T08:05:50.963Z,26.02
2023-03-02T08:10:49.794Z,26.20
2023-03-02T08:15:48.586Z,26.02
2023-03-02T08:20:48.777Z,26.63
2023-03-02T08:25:48.037Z,26.80
2023-03-02T08:30:46.908Z,27.48
2023-03-02T08:35:45.902Z,27.65
2023-03-02T08:40:46.151Z,27.58
2023-03-02T08:45:44.908Z,27.25
2023-03-02T08:50:43.858Z,27.83
2023-03-02T08:55:42.701Z,27.67
2023-03-02T09:00:42.879Z,27.98
2023-03-02T09:05:41.758Z,27.85
2023-03-02T09:10:41.145Z,27.23
2023-03-02T09:15:40.687Z,29.17
2023-03-02T09:20:40.959Z,29.10
2023-03-02T09:25:39.729Z,29.50
2023-03-02T09:30:46.577Z,29.33
2023-03-02T09:35:47.980Z,30.05
2023-03-02T09:41:05.119Z,28.90
2023-03-02T09:46:16.060Z,31.02
2023-03-02T09:51:29.555Z,30.83
2023-03-02T09:56:28.830Z,31.25
2023-03-02T10:01:37.798Z,29.10
2023-03-02T10:06:40.442Z,27.65
2023-03-02T10:11:51.748Z,28.23
2023-03-02T10:16:54.184Z,29.20
2023-03-02T10:22:01.986Z,28.77
2023-03-02T10:27:12.829Z,26.15
2023-03-02T10:32:21.569Z,26.05
2023-03-02T10:37:25.455Z,26.88
2023-03-02T10:42:30.254Z,26.02
2023-03-02T10:47:30.965Z,27.90
2023-03-02T10:52:31.300Z,25.05
2023-03-02T10:57:35.578Z,25.42
2023-03-02T11:02:40.946Z,24.02
2023-03-02T11:07:41.589Z,24.35
2023-03-02T11:12:48.586Z,28.15
2023-03-02T11:17:50.515Z,26.02
2023-03-02T11:23:01.999Z,23.35
2023-03-02T11:28:10.536Z,24.67
2023-03-02T11:33:16.417Z,23.17
2023-03-02T11:38:22.416Z,21.73
2023-03-02T11:43:21.311Z,24.80
2023-03-02T11:48:26.308Z,21.92
2023-03-02T11:53:31.801Z,22.40
2023-03-02T11:58:33.077Z,22.42
2023-03-02T12:03:41.561Z,21.45
2023-03-02T12:08:44.273Z,20.77
2023-03-02T12:13:43.877Z,23.35
2023-03-02T12:18:45.517Z,20.63
2023-03-02T12:24:00.065Z,18.50
2023-03-02T12:29:03.746Z,20.02
2023-03-02T12:34:08.074Z,20.75
2023-03-02T12:39:31.565Z,19.88
2023-03-02T12:44:44.022Z,20.23
2023-03-02T12:49:49.631Z,20.23
2023-03-02T12:55:01.793Z,19.00
2023-03-02T13:00:02.650Z,20.33
2023-03-02T13:05:03.576Z,18.70
2023-03-02T13:10:09.874Z,19.88
2023-03-02T13:15:16.808Z,19.55
2023-03-02T13:20:16.496Z,17.65
2023-03-02T13:25:26.369Z,18.52
2023-03-02T13:30:28.248Z,16.70
2023-03-02T13:35:29.269Z,18.58
2023-03-02T13:40:51.834Z,18.45
2023-03-02T13:45:56.771Z,17.20
2023-03-02T13:51:05.328Z,19.73
2023-03-02T13:56:06.095Z,18.63
2023-03-02T14:01:06.555Z,19.95
2023-03-02T14:06:07.124Z,18.23
2023-03-02T14:11:08.698Z,18.75
2023-03-02T14:16:08.715Z,19.90
2023-03-02T14:21:11.925Z,19.17
2023-03-02T14:31:29.614Z,19.50
2023-03-02T14:36:31.964Z,21.95
2023-03-02T14:41:34.416Z,19.98
2023-03-02T14:46:38.514Z,18.77
2023-03-02T14:51:40.412Z,19.13
2023-03-02T14:56:45.171Z,19.15
2023-03-02T15:01:45.640Z,18.88
2023-03-02T15:06:45.730Z,20.35
2023-03-02T15:11:44.538Z,19.55
2023-03-02T15:16:43.275Z,20.65
2023-03-02T15:21:45.841Z,22.13
2023-03-02T15:26:44.866Z,24.65
2023-03-02T15:31:43.725Z,23.70
2023-03-02T15:36:44.012Z,22.70
2023-03-02T15:41:43.262Z,22.67
2023-03-02T15:46:42.127Z,22.65
2023-03-02T15:51:43.197Z,26.40
2023-03-02T15:56:49.721Z,25.27
2023-03-02T16:01:48.765Z,23.65
2023-03-02T16:06:51.078Z,23.52
2023-03-02T16:11:54.251Z,22.10
2023-03-02T16:16:53.130Z,22.98
2023-03-02T16:21:52.150Z,22.33
2023-03-02T16:26:53.773Z,23.30
2023-03-02T16:31:54.108Z,21.55
2023-03-02T16:36:53.032Z,22.17
2023-03-02T16:41:51.918Z,23.05
2023-03-02T16:46:50.773Z,22.92
2023-03-02T16:51:57.896Z,23.88
2023-03-02T16:56:56.643Z,21.80
2023-03-02T17:01:55.493Z,29.83
2023-03-02T17:07:01.656Z,29.13
2023-03-02T17:12:04.362Z,28.25
2023-03-02T17:17:09.672Z,27.88
2023-03-02T17:22:08.752Z,24.58
2023-03-02T17:27:23.724Z,27.15
2023-03-02T17:32:24.623Z,25.60
2023-03-02T17:37:25.827Z,27.70
2023-03-02T17:42:26.868Z,27.20
2023-03-02T17:47:25.978Z,26.80
2023-03-02T17:52:24.947Z,28.73
2023-03-02T17:57:25.169Z,31.98
2023-03-02T18:02:23.950Z,27.45
2023-03-02T18:07:22.708Z,28.58
2023-03-02T18:12:21.629Z,27.92
2023-03-02T18:17:21.849Z,29.85
2023-03-02T18:22:22.121Z,30.42
2023-03-02T18:27:21.355Z,28.58
2023-03-02T18:32:21.635Z,25.90
2023-03-02T18:37:20.717Z,25.20
2023-03-02T18:42:19.812Z,24.40
2023-03-02T18:47:19.527Z,25.63
2023-03-02T18:52:20.197Z,24.33
2023-03-02T18:57:19.206Z,23.30
2023-03-02T19:02:18.211Z,23.95
2023-03-02T19:07:23.898Z,23.05
2023-03-02T19:12:22.736Z,25.00
2023-03-02T19:17:21.812Z,24.52
2023-03-02T19:22:22.012Z,24.45
2023-03-02T19:27:21.201Z,25.13
2023-03-02T19:32:20.853Z,23.33
2023-03-02T19:37:21.224Z,23.55
2023-03-02T19:42:22.058Z,26.63
2023-03-02T19:47:21.943Z,26.38
2023-03-02T19:52:22.275Z,23.80
2023-03-02T19:57:21.418Z,21.73
2023-03-02T20:02:20.451Z,24.15
2023-03-02T20:07:19.465Z,23.63
2023-03-02T20:12:20.043Z,25.05
2023-03-02T20:17:19.713Z,25.08
2023-03-02T20:22:18.828Z,24.02
2023-03-02T20:27:21.314Z,24.52
2023-03-02T20:32:20.303Z,24.20
2023-03-02T20:37:19.072Z,24.85
2023-03-02T20:42:19.317Z,24.52
2023-03-02T20:47:20.356Z,25.35
2023-03-02T20:52:20.052Z,24.45
2023-03-02T20:57:23.148Z,22.30
2023-03-02T21:02:23.207Z,23.20
2023-03-02T21:07:22.007Z,23.02
2023-03-02T21:12:22.238Z,21.35
2023-03-02T21:17:23.462Z,21.63
2023-03-02T21:22:22.354Z,22.60
2023-03-02T21:27:22.789Z,21.80
2023-03-02T21:32:21.667Z,21.40
2023-03-02T21:37:20.503Z,20.42
2023-03-02T21:42:19.576Z,21.40
2023-03-02T21:47:19.752Z,21.42
2023-03-02T21:52:18.526Z,20.45
2023-03-02T21:57:17.418Z,22.63
2023-03-02T22:02:16.276Z,21.52
2023-03-02T22:07:16.403Z,20.30
2023-03-02T22:12:15.737Z,19.98
2023-03-02T22:17:18.569Z,21.85
2023-03-02T22:22:23.160Z,19.80
2023-03-02T22:27:26.375Z,20.20
2023-03-02T22:32:27.524Z,21.70
2023-03-02T22:37:29.726Z,21.23
2023-03-02T22:42:31.394Z,19.60
2023-03-02T22:47:30.540Z,22.02
2023-03-02T22:52:39.429Z,20.55
2023-03-02T22:57:38.329Z,21.08
2023-03-02T23:02:41.531Z,20.65
2023-03-02T23:07:41.629Z,20.90
2023-03-02T23:12:40.677Z,21.73
2023-03-02T23:17:41.598Z,20.50
2023-03-02T23:22:42.626Z,21.13
2023-03-02T23:27:41.564Z,20.67
2023-03-02T23:32:40.460Z,20.67
2023-03-02T23:37:39.370Z,22.33
2023-03-02T23:42:39.583Z,21.65
2023-03-02T23:47:38.516Z,21.15
2023-03-02T23:52:37.280Z,20.38
2023-03-02T23:57:38.657Z,22.67
